sensor_id;sensor_type;location;lat;lon;timestamp;P1;durP1;ratioP1;P2;durP2;ratioP2
41952;SDS011;63613;28.200;112.870;2024-03-06T00:00:39;58.15;;;38.10;;
41952;SDS011;63613;28.200;112.870;2024-03-06T00:03:09;54.38;;;37.58;;
41952;SDS011;63613;28.200;112.870;2024-03-06T00:05:38;57.72;;;37.80;;
41952;SDS011;63613;28.200;112.870;2024-03-06T00:08:06;55.33;;;38.38;;
41952;SDS011;63613;28.200;112.870;2024-03-06T00:10:35;54.63;;;37.38;;
41952;SDS011;63613;28.200;112.870;2024-03-06T00:13:04;54.78;;;37.13;;
41952;SDS011;63613;28.200;112.870;2024-03-06T00:15:33;51.78;;;36.55;;
41952;SDS011;63613;28.200;112.870;2024-03-06T00:18:02;51.92;;;37.42;;
41952;SDS011;63613;28.200;112.870;2024-03-06T00:20:31;54.08;;;37.30;;
41952;SDS011;63613;28.200;112.870;2024-03-06T00:23:00;54.67;;;37.13;;
41952;SDS011;63613;28.200;112.870;2024-03-06T00:25:29;53.75;;;36.53;;
41952;SDS011;63613;28.200;112.870;2024-03-06T00:27:59;53.22;;;36.67;;
41952;SDS011;63613;28.200;112.870;2024-03-06T00:30:27;56.70;;;37.65;;
41952;SDS011;63613;28.200;112.870;2024-03-06T00:32:56;55.75;;;36.55;;
41952;SDS011;63613;28.200;112.870;2024-03-06T00:35:25;52.78;;;37.40;;
41952;SDS011;63613;28.200;112.870;2024-03-06T00:37:54;51.92;;;35.95;;
41952;SDS011;63613;28.200;112.870;2024-03-06T00:40:29;53.63;;;36.92;;
41952;SDS011;63613;28.200;112.870;2024-03-06T00:42:58;58.97;;;40.05;;
41952;SDS011;63613;28.200;112.870;2024-03-06T00:45:26;58.20;;;38.33;;
41952;SDS011;63613;28.200;112.870;2024-03-06T00:47:55;55.05;;;36.60;;
41952;SDS011;63613;28.200;112.870;2024-03-06T00:50:24;56.63;;;38.00;;
41952;SDS011;63613;28.200;112.870;2024-03-06T00:52:53;54.35;;;36.60;;
41952;SDS011;63613;28.200;112.870;2024-03-06T00:55:22;55.50;;;37.83;;
41952;SDS011;63613;28.200;112.870;2024-03-06T00:57:51;56.17;;;38.80;;
41952;SDS011;63613;28.200;112.870;2024-03-06T01:00:19;55.30;;;38.33;;
41952;SDS011;63613;28.200;112.870;2024-03-06T01:02:48;56.40;;;37.85;;
41952;SDS011;63613;28.200;112.870;2024-03-06T01:05:18;57.28;;;38.50;;
41952;SDS011;63613;28.200;112.870;2024-03-06T01:07:47;55.03;;;37.95;;
41952;SDS011;63613;28.200;112.870;2024-03-06T01:10:16;56.30;;;38.80;;
41952;SDS011;63613;28.200;112.870;2024-03-06T01:12:44;54.22;;;38.85;;
41952;SDS011;63613;28.200;112.870;2024-03-06T01:15:14;53.67;;;37.40;;
41952;SDS011;63613;28.200;112.870;2024-03-06T01:17:45;55.95;;;38.17;;
41952;SDS011;63613;28.200;112.870;2024-03-06T01:20:14;60.60;;;39.72;;
41952;SDS011;63613;28.200;112.870;2024-03-06T01:22:43;55.45;;;38.17;;
41952;SDS011;63613;28.200;112.870;2024-03-06T01:25:12;55.00;;;39.25;;
41952;SDS011;63613;28.200;112.870;2024-03-06T01:27:41;49.03;;;34.45;;
41952;SDS011;63613;28.200;112.870;2024-03-06T01:30:11;53.75;;;37.45;;
41952;SDS011;63613;28.200;112.870;2024-03-06T01:32:40;51.08;;;35.30;;
41952;SDS011;63613;28.200;112.870;2024-03-06T01:35:09;53.05;;;37.72;;
41952;SDS011;63613;28.200;112.870;2024-03-06T01:37:37;56.40;;;38.53;;
41952;SDS011;63613;28.200;112.870;2024-03-06T01:40:06;53.60;;;37.88;;
41952;SDS011;63613;28.200;112.870;2024-03-06T01:42:37;54.38;;;37.80;;
41952;SDS011;63613;28.200;112.870;2024-03-06T01:45:06;62.85;;;39.42;;
41952;SDS011;63613;28.200;112.870;2024-03-06T01:47:35;54.47;;;36.90;;
41952;SDS011;63613;28.200;112.870;2024-03-06T01:50:04;57.53;;;38.40;;
41952;SDS011;63613;28.200;112.870;2024-03-06T01:52:36;65.57;;;43.03;;
41952;SDS011;63613;28.200;112.870;2024-03-06T01:55:08;148.23;;;85.82;;
41952;SDS011;63613;28.200;112.870;2024-03-06T01:57:38;115.88;;;70.10;;
41952;SDS011;63613;28.200;112.870;2024-03-06T02:00:08;152.80;;;89.07;;
41952;SDS011;63613;28.200;112.870;2024-03-06T02:02:41;142.20;;;85.70;;
41952;SDS011;63613;28.200;112.870;2024-03-06T02:05:11;175.18;;;99.32;;
41952;SDS011;63613;28.200;112.870;2024-03-06T02:07:40;161.48;;;95.20;;
41952;SDS011;63613;28.200;112.870;2024-03-06T02:10:11;170.23;;;98.47;;
41952;SDS011;63613;28.200;112.870;2024-03-06T02:12:40;172.95;;;97.32;;
41952;SDS011;63613;28.200;112.870;2024-03-06T02:15:11;167.98;;;97.35;;
41952;SDS011;63613;28.200;112.870;2024-03-06T02:17:40;170.35;;;99.20;;
41952;SDS011;63613;28.200;112.870;2024-03-06T02:20:09;166.38;;;98.07;;
41952;SDS011;63613;28.200;112.870;2024-03-06T02:22:40;174.85;;;104.07;;
41952;SDS011;63613;28.200;112.870;2024-03-06T02:25:09;171.05;;;100.50;;
41952;SDS011;63613;28.200;112.870;2024-03-06T02:27:40;175.98;;;101.50;;
41952;SDS011;63613;28.200;112.870;2024-03-06T02:30:09;174.73;;;101.45;;
41952;SDS011;63613;28.200;112.870;2024-03-06T02:32:38;172.85;;;99.88;;
41952;SDS011;63613;28.200;112.870;2024-03-06T02:35:07;169.18;;;101.55;;
41952;SDS011;63613;28.200;112.870;2024-03-06T02:37:36;177.25;;;102.70;;
41952;SDS011;63613;28.200;112.870;2024-03-06T02:40:06;175.63;;;100.78;;
41952;SDS011;63613;28.200;112.870;2024-03-06T02:42:36;180.70;;;103.18;;
41952;SDS011;63613;28.200;112.870;2024-03-06T02:45:05;180.88;;;100.97;;
41952;SDS011;63613;28.200;112.870;2024-03-06T02:47:34;174.65;;;102.13;;
41952;SDS011;63613;28.200;112.870;2024-03-06T02:50:03;175.48;;;102.15;;
41952;SDS011;63613;28.200;112.870;2024-03-06T02:52:34;172.52;;;99.03;;
41952;SDS011;63613;28.200;112.870;2024-03-06T02:55:03;186.15;;;104.30;;
41952;SDS011;63613;28.200;112.870;2024-03-06T02:57:33;181.00;;;102.32;;
41952;SDS011;63613;28.200;112.870;2024-03-06T03:00:03;184.27;;;103.18;;
41952;SDS011;63613;28.200;112.870;2024-03-06T03:02:36;180.20;;;103.13;;
41952;SDS011;63613;28.200;112.870;2024-03-06T03:05:06;178.10;;;103.65;;
41952;SDS011;63613;28.200;112.870;2024-03-06T03:07:35;177.80;;;99.50;;
41952;SDS011;63613;28.200;112.870;2024-03-06T03:10:04;186.80;;;105.03;;
41952;SDS011;63613;28.200;112.870;2024-03-06T03:12:32;193.65;;;105.13;;
41952;SDS011;63613;28.200;112.870;2024-03-06T03:15:02;188.65;;;104.75;;
41952;SDS011;63613;28.200;112.870;2024-03-06T03:17:32;181.85;;;101.00;;
41952;SDS011;63613;28.200;112.870;2024-03-06T03:20:02;174.30;;;101.93;;
41952;SDS011;63613;28.200;112.870;2024-03-06T03:22:37;181.60;;;102.10;;
41952;SDS011;63613;28.200;112.870;2024-03-06T03:25:08;179.25;;;99.85;;
41952;SDS011;63613;28.200;112.870;2024-03-06T03:27:38;175.38;;;101.32;;
41952;SDS011;63613;28.200;112.870;2024-03-06T03:30:07;181.18;;;101.95;;
41952;SDS011;63613;28.200;112.870;2024-03-06T03:32:38;182.73;;;101.53;;
41952;SDS011;63613;28.200;112.870;2024-03-06T03:35:07;176.65;;;100.93;;
41952;SDS011;63613;28.200;112.870;2024-03-06T03:37:36;174.13;;;101.10;;
41952;SDS011;63613;28.200;112.870;2024-03-06T03:40:06;177.80;;;101.13;;
41952;SDS011;63613;28.200;112.870;2024-03-06T03:42:38;182.63;;;100.50;;
41952;SDS011;63613;28.200;112.870;2024-03-06T03:45:07;180.65;;;99.68;;
41952;SDS011;63613;28.200;112.870;2024-03-06T03:47:37;177.40;;;98.90;;
41952;SDS011;63613;28.200;112.870;2024-03-06T03:50:09;177.60;;;97.55;;
41952;SDS011;63613;28.200;112.870;2024-03-06T03:52:38;179.15;;;101.25;;
41952;SDS011;63613;28.200;112.870;2024-03-06T03:55:09;172.95;;;99.45;;
41952;SDS011;63613;28.200;112.870;2024-03-06T03:57:39;178.00;;;100.10;;
41952;SDS011;63613;28.200;112.870;2024-03-06T04:00:08;177.52;;;99.53;;
41952;SDS011;63613;28.200;112.870;2024-03-06T04:02:37;180.50;;;95.25;;
41952;SDS011;63613;28.200;112.870;2024-03-06T04:05:06;176.63;;;96.35;;
41952;SDS011;63613;28.200;112.870;2024-03-06T04:07:36;175.35;;;100.38;;
41952;SDS011;63613;28.200;112.870;2024-03-06T04:10:06;172.73;;;97.72;;
41952;SDS011;63613;28.200;112.870;2024-03-06T04:12:37;175.55;;;101.75;;
41952;SDS011;63613;28.200;112.870;2024-03-06T04:15:05;177.38;;;98.82;;
41952;SDS011;63613;28.200;112.870;2024-03-06T04:17:35;169.50;;;96.95;;
41952;SDS011;63613;28.200;112.870;2024-03-06T04:20:03;178.85;;;96.40;;
41952;SDS011;63613;28.200;112.870;2024-03-06T04:22:34;168.63;;;97.47;;
41952;SDS011;63613;28.200;112.870;2024-03-06T04:25:02;178.23;;;101.57;;
41952;SDS011;63613;28.200;112.870;2024-03-06T04:27:32;181.95;;;97.63;;
41952;SDS011;63613;28.200;112.870;2024-03-06T04:30:00;176.75;;;100.50;;
41952;SDS011;63613;28.200;112.870;2024-03-06T04:32:30;175.95;;;95.20;;
41952;SDS011;63613;28.200;112.870;2024-03-06T04:35:00;181.85;;;99.85;;
41952;SDS011;63613;28.200;112.870;2024-03-06T04:37:29;179.30;;;96.65;;
41952;SDS011;63613;28.200;112.870;2024-03-06T04:39:59;172.68;;;95.72;;
41952;SDS011;63613;28.200;112.870;2024-03-06T04:42:28;165.63;;;96.13;;
41952;SDS011;63613;28.200;112.870;2024-03-06T04:44:57;171.85;;;98.05;;
41952;SDS011;63613;28.200;112.870;2024-03-06T04:47:27;176.57;;;98.10;;
41952;SDS011;63613;28.200;112.870;2024-03-06T04:49:56;177.52;;;101.95;;
41952;SDS011;63613;28.200;112.870;2024-03-06T04:52:25;184.20;;;101.85;;
41952;SDS011;63613;28.200;112.870;2024-03-06T04:54:53;174.95;;;99.65;;
41952;SDS011;63613;28.200;112.870;2024-03-06T04:57:22;178.32;;;100.45;;
41952;SDS011;63613;28.200;112.870;2024-03-06T04:59:55;178.35;;;100.65;;
41952;SDS011;63613;28.200;112.870;2024-03-06T05:02:25;176.98;;;98.68;;
41952;SDS011;63613;28.200;112.870;2024-03-06T05:04:53;174.90;;;99.30;;
41952;SDS011;63613;28.200;112.870;2024-03-06T05:07:22;172.75;;;99.40;;
41952;SDS011;63613;28.200;112.870;2024-03-06T05:09:51;181.85;;;102.40;;
41952;SDS011;63613;28.200;112.870;2024-03-06T05:12:20;175.93;;;99.88;;
41952;SDS011;63613;28.200;112.870;2024-03-06T05:14:49;180.70;;;98.10;;
41952;SDS011;63613;28.200;112.870;2024-03-06T05:17:18;172.93;;;97.95;;
41952;SDS011;63613;28.200;112.870;2024-03-06T05:19:48;176.98;;;100.60;;
41952;SDS011;63613;28.200;112.870;2024-03-06T05:22:17;176.88;;;97.70;;
41952;SDS011;63613;28.200;112.870;2024-03-06T05:24:48;176.82;;;97.25;;
41952;SDS011;63613;28.200;112.870;2024-03-06T05:27:17;174.60;;;99.50;;
41952;SDS011;63613;28.200;112.870;2024-03-06T05:29:45;168.50;;;97.43;;
41952;SDS011;63613;28.200;112.870;2024-03-06T05:32:14;173.10;;;95.63;;
41952;SDS011;63613;28.200;112.870;2024-03-06T05:34:43;164.80;;;94.95;;
41952;SDS011;63613;28.200;112.870;2024-03-06T05:37:13;170.95;;;94.43;;
41952;SDS011;63613;28.200;112.870;2024-03-06T05:39:41;168.32;;;95.07;;
41952;SDS011;63613;28.200;112.870;2024-03-06T05:42:10;164.15;;;94.22;;
41952;SDS011;63613;28.200;112.870;2024-03-06T05:44:39;165.55;;;94.60;;
41952;SDS011;63613;28.200;112.870;2024-03-06T05:47:08;168.18;;;91.82;;
41952;SDS011;63613;28.200;112.870;2024-03-06T05:49:37;164.40;;;91.63;;
41952;SDS011;63613;28.200;112.870;2024-03-06T05:52:06;162.23;;;93.68;;
41952;SDS011;63613;28.200;112.870;2024-03-06T05:54:34;158.88;;;91.80;;
41952;SDS011;63613;28.200;112.870;2024-03-06T05:57:03;160.32;;;89.50;;
41952;SDS011;63613;28.200;112.870;2024-03-06T05:59:32;155.90;;;93.45;;
41952;SDS011;63613;28.200;112.870;2024-03-06T06:02:02;153.98;;;87.32;;
41952;SDS011;63613;28.200;112.870;2024-03-06T06:04:30;152.20;;;88.30;;
41952;SDS011;63613;28.200;112.870;2024-03-06T06:06:59;150.20;;;85.80;;
41952;SDS011;63613;28.200;112.870;2024-03-06T06:09:29;157.25;;;92.40;;
41952;SDS011;63613;28.200;112.870;2024-03-06T06:11:59;154.07;;;91.00;;
41952;SDS011;63613;28.200;112.870;2024-03-06T06:14:28;156.25;;;90.32;;
41952;SDS011;63613;28.200;112.870;2024-03-06T06:16:57;149.10;;;86.78;;
41952;SDS011;63613;28.200;112.870;2024-03-06T06:19:25;150.10;;;87.10;;
41952;SDS011;63613;28.200;112.870;2024-03-06T06:21:54;150.93;;;86.82;;
41952;SDS011;63613;28.200;112.870;2024-03-06T06:24:23;145.50;;;86.25;;
41952;SDS011;63613;28.200;112.870;2024-03-06T06:26:53;142.93;;;86.88;;
41952;SDS011;63613;28.200;112.870;2024-03-06T06:29:22;147.15;;;82.68;;
41952;SDS011;63613;28.200;112.870;2024-03-06T06:31:50;146.63;;;87.25;;
41952;SDS011;63613;28.200;112.870;2024-03-06T06:34:19;148.32;;;86.68;;
41952;SDS011;63613;28.200;112.870;2024-03-06T06:36:48;138.07;;;83.57;;
41952;SDS011;63613;28.200;112.870;2024-03-06T06:39:20;140.00;;;82.60;;
41952;SDS011;63613;28.200;112.870;2024-03-06T06:41:48;134.20;;;80.22;;
41952;SDS011;63613;28.200;112.870;2024-03-06T06:44:17;133.73;;;81.95;;
41952;SDS011;63613;28.200;112.870;2024-03-06T06:46:46;142.35;;;79.70;;
41952;SDS011;63613;28.200;112.870;2024-03-06T06:49:14;140.65;;;85.40;;
41952;SDS011;63613;28.200;112.870;2024-03-06T06:51:44;138.88;;;79.35;;
41952;SDS011;63613;28.200;112.870;2024-03-06T06:54:12;134.98;;;78.20;;
41952;SDS011;63613;28.200;112.870;2024-03-06T06:56:41;138.23;;;82.15;;
41952;SDS011;63613;28.200;112.870;2024-03-06T06:59:10;133.77;;;82.88;;
41952;SDS011;63613;28.200;112.870;2024-03-06T07:01:40;130.98;;;77.53;;
41952;SDS011;63613;28.200;112.870;2024-03-06T07:04:10;135.65;;;77.65;;
41952;SDS011;63613;28.200;112.870;2024-03-06T07:06:38;133.27;;;79.35;;
41952;SDS011;63613;28.200;112.870;2024-03-06T07:09:07;135.55;;;79.82;;
41952;SDS011;63613;28.200;112.870;2024-03-06T07:11:35;129.40;;;77.55;;
41952;SDS011;63613;28.200;112.870;2024-03-06T07:14:05;127.20;;;79.03;;
41952;SDS011;63613;28.200;112.870;2024-03-06T07:16:41;126.32;;;77.18;;
41952;SDS011;63613;28.200;112.870;2024-03-06T07:19:10;127.70;;;76.97;;
41952;SDS011;63613;28.200;112.870;2024-03-06T07:21:39;125.35;;;75.07;;
41952;SDS011;63613;28.200;112.870;2024-03-06T07:24:07;130.43;;;75.72;;
41952;SDS011;63613;28.200;112.870;2024-03-06T07:26:37;116.80;;;71.82;;
41952;SDS011;63613;28.200;112.870;2024-03-06T07:29:05;123.43;;;71.30;;
41952;SDS011;63613;28.200;112.870;2024-03-06T07:31:40;114.65;;;71.40;;
41952;SDS011;63613;28.200;112.870;2024-03-06T07:34:10;118.80;;;70.45;;
41952;SDS011;63613;28.200;112.870;2024-03-06T07:36:40;119.75;;;69.13;;
41952;SDS011;63613;28.200;112.870;2024-03-06T07:39:09;120.65;;;71.32;;
41952;SDS011;63613;28.200;112.870;2024-03-06T07:41:38;125.90;;;75.65;;
41952;SDS011;63613;28.200;112.870;2024-03-06T07:44:07;122.80;;;71.82;;
41952;SDS011;63613;28.200;112.870;2024-03-06T07:46:36;118.90;;;70.07;;
41952;SDS011;63613;28.200;112.870;2024-03-06T07:49:06;126.10;;;72.32;;
41952;SDS011;63613;28.200;112.870;2024-03-06T07:51:35;120.22;;;71.82;;
41952;SDS011;63613;28.200;112.870;2024-03-06T07:54:04;123.00;;;71.82;;
41952;SDS011;63613;28.200;112.870;2024-03-06T07:56:32;120.30;;;68.80;;
41952;SDS011;63613;28.200;112.870;2024-03-06T07:59:01;116.80;;;70.63;;
41952;SDS011;63613;28.200;112.870;2024-03-06T08:01:33;124.25;;;70.90;;
41952;SDS011;63613;28.200;112.870;2024-03-06T08:04:01;118.43;;;67.63;;
41952;SDS011;63613;28.200;112.870;2024-03-06T08:06:30;125.28;;;73.30;;
41952;SDS011;63613;28.200;112.870;2024-03-06T08:08:59;121.13;;;71.65;;
41952;SDS011;63613;28.200;112.870;2024-03-06T08:11:29;111.18;;;68.88;;
41952;SDS011;63613;28.200;112.870;2024-03-06T08:13:59;124.80;;;69.35;;
41952;SDS011;63613;28.200;112.870;2024-03-06T08:16:28;122.13;;;70.00;;
41952;SDS011;63613;28.200;112.870;2024-03-06T08:18:57;120.28;;;69.53;;
41952;SDS011;63613;28.200;112.870;2024-03-06T08:21:26;127.15;;;72.65;;
41952;SDS011;63613;28.200;112.870;2024-03-06T08:23:54;121.95;;;67.00;;
41952;SDS011;63613;28.200;112.870;2024-03-06T08:26:25;117.57;;;68.45;;
41952;SDS011;63613;28.200;112.870;2024-03-06T08:28:53;122.70;;;70.57;;
41952;SDS011;63613;28.200;112.870;2024-03-06T08:31:22;123.22;;;69.57;;
41952;SDS011;63613;28.200;112.870;2024-03-06T08:33:51;128.18;;;71.65;;
41952;SDS011;63613;28.200;112.870;2024-03-06T08:36:20;117.25;;;69.10;;
41952;SDS011;63613;28.200;112.870;2024-03-06T08:38:52;128.07;;;71.15;;
41952;SDS011;63613;28.200;112.870;2024-03-06T08:41:20;124.85;;;73.35;;
41952;SDS011;63613;28.200;112.870;2024-03-06T08:43:49;121.63;;;72.05;;
41952;SDS011;63613;28.200;112.870;2024-03-06T08:46:18;130.35;;;74.88;;
41952;SDS011;63613;28.200;112.870;2024-03-06T08:48:46;123.68;;;70.78;;
41952;SDS011;63613;28.200;112.870;2024-03-06T08:51:16;120.35;;;69.18;;
41952;SDS011;63613;28.200;112.870;2024-03-06T08:53:45;119.55;;;68.63;;
41952;SDS011;63613;28.200;112.870;2024-03-06T08:56:14;118.97;;;69.50;;
41952;SDS011;63613;28.200;112.870;2024-03-06T08:58:42;110.47;;;65.82;;
41952;SDS011;63613;28.200;112.870;2024-03-06T09:01:11;106.15;;;64.45;;
41952;SDS011;63613;28.200;112.870;2024-03-06T09:03:43;108.10;;;66.00;;
41952;SDS011;63613;28.200;112.870;2024-03-06T09:06:11;110.93;;;65.40;;
41952;SDS011;63613;28.200;112.870;2024-03-06T09:08:40;104.70;;;64.80;;
41952;SDS011;63613;28.200;112.870;2024-03-06T09:11:09;108.47;;;64.70;;
41952;SDS011;63613;28.200;112.870;2024-03-06T09:13:38;103.40;;;62.20;;
41952;SDS011;63613;28.200;112.870;2024-03-06T09:16:09;104.20;;;62.42;;
41952;SDS011;63613;28.200;112.870;2024-03-06T09:18:37;107.03;;;66.75;;
41952;SDS011;63613;28.200;112.870;2024-03-06T09:21:06;104.57;;;62.17;;
41952;SDS011;63613;28.200;112.870;2024-03-06T09:23:37;111.72;;;64.57;;
41952;SDS011;63613;28.200;112.870;2024-03-06T09:26:05;101.38;;;63.03;;
41952;SDS011;63613;28.200;112.870;2024-03-06T09:28:35;100.40;;;59.47;;
41952;SDS011;63613;28.200;112.870;2024-03-06T09:31:05;101.15;;;62.25;;
41952;SDS011;63613;28.200;112.870;2024-03-06T09:33:34;96.30;;;61.40;;
41952;SDS011;63613;28.200;112.870;2024-03-06T09:36:02;98.82;;;61.40;;
41952;SDS011;63613;28.200;112.870;2024-03-06T09:38:31;98.10;;;62.00;;
41952;SDS011;63613;28.200;112.870;2024-03-06T09:41:00;99.32;;;61.20;;
41952;SDS011;63613;28.200;112.870;2024-03-06T09:43:29;97.05;;;60.33;;
41952;SDS011;63613;28.200;112.870;2024-03-06T09:45:58;96.38;;;59.58;;
41952;SDS011;63613;28.200;112.870;2024-03-06T09:48:28;99.07;;;60.58;;
41952;SDS011;63613;28.200;112.870;2024-03-06T09:51:00;97.35;;;59.47;;
41952;SDS011;63613;28.200;112.870;2024-03-06T09:53:30;96.05;;;58.42;;
41952;SDS011;63613;28.200;112.870;2024-03-06T09:55:59;93.65;;;54.40;;
41952;SDS011;63613;28.200;112.870;2024-03-06T09:58:29;94.82;;;57.80;;
41952;SDS011;63613;28.200;112.870;2024-03-06T10:00:59;92.82;;;57.38;;
41952;SDS011;63613;28.200;112.870;2024-03-06T10:03:31;93.53;;;58.28;;
41952;SDS011;63613;28.200;112.870;2024-03-06T10:06:00;90.90;;;57.42;;
41952;SDS011;63613;28.200;112.870;2024-03-06T10:08:28;88.18;;;56.13;;
41952;SDS011;63613;28.200;112.870;2024-03-06T10:10:59;90.72;;;57.55;;
41952;SDS011;63613;28.200;112.870;2024-03-06T10:13:28;88.65;;;55.03;;
41952;SDS011;63613;28.200;112.870;2024-03-06T10:16:02;86.05;;;54.88;;
41952;SDS011;63613;28.200;112.870;2024-03-06T10:18:37;88.85;;;56.10;;
41952;SDS011;63613;28.200;112.870;2024-03-06T10:21:05;86.50;;;53.58;;
41952;SDS011;63613;28.200;112.870;2024-03-06T10:23:35;87.03;;;53.65;;
41952;SDS011;63613;28.200;112.870;2024-03-06T10:26:07;87.85;;;52.90;;
41952;SDS011;63613;28.200;112.870;2024-03-06T10:28:35;86.50;;;52.47;;
41952;SDS011;63613;28.200;112.870;2024-03-06T10:31:04;83.57;;;53.35;;
41952;SDS011;63613;28.200;112.870;2024-03-06T10:33:34;85.97;;;51.47;;
41952;SDS011;63613;28.200;112.870;2024-03-06T10:36:03;82.85;;;54.30;;
41952;SDS011;63613;28.200;112.870;2024-03-06T10:38:34;86.60;;;52.60;;
41952;SDS011;63613;28.200;112.870;2024-03-06T10:41:06;87.93;;;54.05;;
41952;SDS011;63613;28.200;112.870;2024-03-06T10:43:39;79.80;;;50.80;;
41952;SDS011;63613;28.200;112.870;2024-03-06T10:46:15;81.80;;;52.65;;
41952;SDS011;63613;28.200;112.870;2024-03-06T10:48:48;83.07;;;52.80;;
41952;SDS011;63613;28.200;112.870;2024-03-06T10:51:18;82.32;;;51.53;;
41952;SDS011;63613;28.200;112.870;2024-03-06T10:53:48;82.90;;;51.22;;
41952;SDS011;63613;28.200;112.870;2024-03-06T10:56:18;80.93;;;50.97;;
41952;SDS011;63613;28.200;112.870;2024-03-06T10:58:50;86.53;;;52.45;;
41952;SDS011;63613;28.200;112.870;2024-03-06T11:01:21;85.85;;;51.75;;
41952;SDS011;63613;28.200;112.870;2024-03-06T11:03:52;71.45;;;44.92;;
41952;SDS011;63613;28.200;112.870;2024-03-06T11:06:21;76.13;;;45.45;;
41952;SDS011;63613;28.200;112.870;2024-03-06T11:08:53;67.72;;;41.88;;
41952;SDS011;63613;28.200;112.870;2024-03-06T11:11:22;67.53;;;44.30;;
41952;SDS011;63613;28.200;112.870;2024-03-06T11:13:55;64.43;;;42.50;;
41952;SDS011;63613;28.200;112.870;2024-03-06T11:16:31;59.95;;;39.13;;
41952;SDS011;63613;28.200;112.870;2024-03-06T11:19:20;58.42;;;36.75;;
41952;SDS011;63613;28.200;112.870;2024-03-06T11:21:49;57.80;;;35.95;;
41952;SDS011;63613;28.200;112.870;2024-03-06T11:24:20;57.78;;;37.38;;
41952;SDS011;63613;28.200;112.870;2024-03-06T11:27:00;55.05;;;36.70;;
41952;SDS011;63613;28.200;112.870;2024-03-06T11:32:37;51.97;;;34.28;;
41952;SDS011;63613;28.200;112.870;2024-03-06T11:35:28;51.10;;;32.13;;
41952;SDS011;63613;28.200;112.870;2024-03-06T11:37:58;46.72;;;32.08;;
41952;SDS011;63613;28.200;112.870;2024-03-06T11:40:29;50.50;;;32.20;;
41952;SDS011;63613;28.200;112.870;2024-03-06T11:43:21;51.22;;;31.92;;
41952;SDS011;63613;28.200;112.870;2024-03-06T11:45:50;42.42;;;30.17;;
41952;SDS011;63613;28.200;112.870;2024-03-06T11:48:19;48.55;;;30.23;;
41952;SDS011;63613;28.200;112.870;2024-03-06T11:50:48;54.63;;;29.08;;
41952;SDS011;63613;28.200;112.870;2024-03-06T11:53:19;43.10;;;29.45;;
41952;SDS011;63613;28.200;112.870;2024-03-06T11:55:51;41.83;;;27.40;;
41952;SDS011;63613;28.200;112.870;2024-03-06T11:58:23;40.42;;;28.08;;
41952;SDS011;63613;28.200;112.870;2024-03-06T12:00:54;36.67;;;26.35;;
41952;SDS011;63613;28.200;112.870;2024-03-06T12:03:23;37.30;;;25.85;;
41952;SDS011;63613;28.200;112.870;2024-03-06T12:05:52;36.55;;;25.00;;
41952;SDS011;63613;28.200;112.870;2024-03-06T12:08:20;36.50;;;25.13;;
41952;SDS011;63613;28.200;112.870;2024-03-06T12:10:50;41.15;;;23.27;;
41952;SDS011;63613;28.200;112.870;2024-03-06T12:13:22;34.55;;;22.73;;
41952;SDS011;63613;28.200;112.870;2024-03-06T12:15:51;31.67;;;22.73;;
41952;SDS011;63613;28.200;112.870;2024-03-06T12:18:20;32.20;;;24.08;;
41952;SDS011;63613;28.200;112.870;2024-03-06T12:20:50;31.15;;;22.80;;
41952;SDS011;63613;28.200;112.870;2024-03-06T12:23:19;33.03;;;22.08;;
41952;SDS011;63613;28.200;112.870;2024-03-06T12:26:04;25.55;;;18.58;;
41952;SDS011;63613;28.200;112.870;2024-03-06T12:28:38;25.23;;;19.07;;
41952;SDS011;63613;28.200;112.870;2024-03-06T12:31:07;24.58;;;18.55;;
41952;SDS011;63613;28.200;112.870;2024-03-06T12:33:36;24.75;;;18.80;;
41952;SDS011;63613;28.200;112.870;2024-03-06T12:36:07;25.80;;;18.77;;
41952;SDS011;63613;28.200;112.870;2024-03-06T12:38:37;21.77;;;16.60;;
41952;SDS011;63613;28.200;112.870;2024-03-06T12:41:06;24.73;;;17.80;;
41952;SDS011;63613;28.200;112.870;2024-03-06T12:43:35;25.80;;;18.35;;
41952;SDS011;63613;28.200;112.870;2024-03-06T12:46:03;23.48;;;16.98;;
41952;SDS011;63613;28.200;112.870;2024-03-06T12:48:32;26.25;;;17.40;;
41952;SDS011;63613;28.200;112.870;2024-03-06T12:51:01;21.83;;;17.13;;
41952;SDS011;63613;28.200;112.870;2024-03-06T12:53:30;26.90;;;18.58;;
41952;SDS011;63613;28.200;112.870;2024-03-06T12:56:01;25.98;;;18.20;;
41952;SDS011;63613;28.200;112.870;2024-03-06T12:58:29;20.88;;;16.30;;
41952;SDS011;63613;28.200;112.870;2024-03-06T13:01:01;25.90;;;17.33;;
41952;SDS011;63613;28.200;112.870;2024-03-06T13:03:31;22.48;;;15.98;;
41952;SDS011;63613;28.200;112.870;2024-03-06T13:06:01;20.17;;;15.00;;
41952;SDS011;63613;28.200;112.870;2024-03-06T13:08:30;23.52;;;16.77;;
41952;SDS011;63613;28.200;112.870;2024-03-06T13:10:59;16.95;;;13.52;;
41952;SDS011;63613;28.200;112.870;2024-03-06T13:13:28;40.10;;;25.98;;
41952;SDS011;63613;28.200;112.870;2024-03-06T13:15:59;38.30;;;26.52;;
41952;SDS011;63613;28.200;112.870;2024-03-06T13:18:28;27.70;;;20.20;;
41952;SDS011;63613;28.200;112.870;2024-03-06T13:20:57;28.27;;;19.08;;
41952;SDS011;63613;28.200;112.870;2024-03-06T13:23:26;27.88;;;18.52;;
41952;SDS011;63613;28.200;112.870;2024-03-06T13:25:56;28.58;;;18.20;;
41952;SDS011;63613;28.200;112.870;2024-03-06T13:28:24;24.00;;;17.92;;
41952;SDS011;63613;28.200;112.870;2024-03-06T13:30:53;22.83;;;15.90;;
41952;SDS011;63613;28.200;112.870;2024-03-06T13:33:22;24.67;;;16.45;;
41952;SDS011;63613;28.200;112.870;2024-03-06T13:35:52;23.42;;;16.27;;
41952;SDS011;63613;28.200;112.870;2024-03-06T13:38:22;24.33;;;16.17;;
41952;SDS011;63613;28.200;112.870;2024-03-06T13:40:50;26.98;;;18.15;;
41952;SDS011;63613;28.200;112.870;2024-03-06T13:43:19;28.83;;;19.55;;
41952;SDS011;63613;28.200;112.870;2024-03-06T13:45:49;24.58;;;17.60;;
41952;SDS011;63613;28.200;112.870;2024-03-06T13:48:18;22.98;;;16.33;;
41952;SDS011;63613;28.200;112.870;2024-03-06T13:50:49;21.73;;;16.92;;
41952;SDS011;63613;28.200;112.870;2024-03-06T13:53:17;21.45;;;16.63;;
41952;SDS011;63613;28.200;112.870;2024-03-06T13:55:46;25.00;;;15.48;;
41952;SDS011;63613;28.200;112.870;2024-03-06T13:58:15;20.52;;;15.82;;
41952;SDS011;63613;28.200;112.870;2024-03-06T14:00:44;25.85;;;14.38;;
41952;SDS011;63613;28.200;112.870;2024-03-06T14:03:14;20.92;;;15.07;;
41952;SDS011;63613;28.200;112.870;2024-03-06T14:05:43;18.63;;;13.90;;